PAC8255 KDFW-KATL
Flight info
| Callsign | PAC8255 |
|---|---|
| Flight time | 1h 27m |
| Altitude | 35000 |
| Route | N0486F350 FORCK3 FORCK DCT ELD DCT MERDN DCT ORRKK HOBTT3 |
| Aircraft | B748/H-SADE1E2E3FGHIJ1J2J3J4J5J7M1M3P2RWXYZ/LB1D1G1 |
Departure
| Time | 2026-05-01 11:57 |
|---|---|
| Airport | Dallas Fort Worth International Airport (KDFW) |
Arrival
| Time | 2026-05-01 13:25 |
|---|---|
| Airport | Hartsfield Jackson Atlanta International Airport (KATL) |
| Time | Latitude | Longitude | Altitude | Speed | Heading |
|---|---|---|---|---|---|
| 2026-05-01 09:54 | 32.89727 | -97.06050 | 620 ft | 0 kts | 360° |
| 2026-05-01 11:39 | 32.89723 | -97.06050 | 621 ft | 3 kts | 359° |
| 2026-05-01 11:39 | 32.89696 | -97.06048 | 621 ft | 4 kts | 359° |
| 2026-05-01 11:39 | 32.89678 | -97.06050 | 621 ft | 2 kts | 36° |
| 2026-05-01 11:39 | 32.89663 | -97.06065 | 621 ft | 4 kts | 64° |
| 2026-05-01 11:40 | 32.89658 | -97.06090 | 621 ft | 4 kts | 93° |
| 2026-05-01 11:40 | 32.89659 | -97.06114 | 621 ft | 0 kts | 91° |
| 2026-05-01 11:44 | 32.89657 | -97.05976 | 621 ft | 16 kts | 90° |
| 2026-05-01 11:44 | 32.89656 | -97.05845 | 621 ft | 15 kts | 90° |
| 2026-05-01 11:44 | 32.89675 | -97.05794 | 621 ft | 9 kts | 28° |
| 2026-05-01 11:44 | 32.89755 | -97.05783 | 621 ft | 13 kts | 1° |
| 2026-05-01 11:45 | 32.89867 | -97.05782 | 621 ft | 18 kts | 0° |
| 2026-05-01 11:45 | 32.90006 | -97.05782 | 621 ft | 19 kts | 0° |
| 2026-05-01 11:45 | 32.90102 | -97.05781 | 621 ft | 15 kts | 0° |
| 2026-05-01 11:45 | 32.90237 | -97.05780 | 621 ft | 21 kts | 0° |
| 2026-05-01 11:46 | 32.90378 | -97.05779 | 621 ft | 21 kts | 359° |
| 2026-05-01 11:46 | 32.90560 | -97.05779 | 621 ft | 27 kts | 0° |
| 2026-05-01 11:46 | 32.90745 | -97.05778 | 621 ft | 28 kts | 358° |
| 2026-05-01 11:46 | 32.90934 | -97.05780 | 621 ft | 25 kts | 0° |
| 2026-05-01 11:47 | 32.91007 | -97.05750 | 621 ft | 10 kts | 62° |
| 2026-05-01 11:47 | 32.91016 | -97.05622 | 621 ft | 21 kts | 90° |
| 2026-05-01 11:47 | 32.91016 | -97.05448 | 621 ft | 20 kts | 90° |
| 2026-05-01 11:47 | 32.91016 | -97.05280 | 621 ft | 22 kts | 90° |
| 2026-05-01 11:48 | 32.91016 | -97.05085 | 621 ft | 24 kts | 90° |
| 2026-05-01 11:48 | 32.91013 | -97.04879 | 621 ft | 30 kts | 91° |
| 2026-05-01 11:48 | 32.91012 | -97.04640 | 621 ft | 28 kts | 90° |
| 2026-05-01 11:48 | 32.91013 | -97.04390 | 621 ft | 29 kts | 89° |
| 2026-05-01 11:49 | 32.91011 | -97.04155 | 621 ft | 27 kts | 92° |
| 2026-05-01 11:49 | 32.91008 | -97.03936 | 621 ft | 29 kts | 89° |
| 2026-05-01 11:49 | 32.91010 | -97.03686 | 621 ft | 29 kts | 89° |
| 2026-05-01 11:49 | 32.91006 | -97.03451 | 621 ft | 27 kts | 91° |
| 2026-05-01 11:50 | 32.91005 | -97.03237 | 621 ft | 25 kts | 89° |
| 2026-05-01 11:50 | 32.91005 | -97.03196 | 621 ft | 0 kts | 89° |
| 2026-05-01 11:50 | 32.91003 | -97.03185 | 621 ft | 1 kts | 136° |
| 2026-05-01 11:51 | 32.90989 | -97.03180 | 621 ft | 11 kts | 167° |
| 2026-05-01 11:51 | 32.90886 | -97.03179 | 621 ft | 17 kts | 180° |
| 2026-05-01 11:51 | 32.90771 | -97.03179 | 621 ft | 18 kts | 180° |
| 2026-05-01 11:51 | 32.90590 | -97.03178 | 621 ft | 30 kts | 180° |
| 2026-05-01 11:52 | 32.90384 | -97.03177 | 621 ft | 28 kts | 179° |
| 2026-05-01 11:52 | 32.90179 | -97.03182 | 621 ft | 31 kts | 181° |
| 2026-05-01 11:52 | 32.89962 | -97.03185 | 621 ft | 33 kts | 179° |
| 2026-05-01 11:52 | 32.89741 | -97.03181 | 621 ft | 31 kts | 179° |
| 2026-05-01 11:53 | 32.89536 | -97.03186 | 621 ft | 28 kts | 180° |
| 2026-05-01 11:53 | 32.89346 | -97.03186 | 621 ft | 26 kts | 180° |
| 2026-05-01 11:53 | 32.89171 | -97.03187 | 621 ft | 24 kts | 180° |
| 2026-05-01 11:53 | 32.89011 | -97.03189 | 621 ft | 22 kts | 180° |
| 2026-05-01 11:54 | 32.88858 | -97.03189 | 621 ft | 23 kts | 180° |
| 2026-05-01 11:54 | 32.88662 | -97.03189 | 621 ft | 28 kts | 179° |
| 2026-05-01 11:54 | 32.88476 | -97.03189 | 621 ft | 26 kts | 181° |
| 2026-05-01 11:54 | 32.88305 | -97.03192 | 621 ft | 23 kts | 180° |
| 2026-05-01 11:55 | 32.88146 | -97.03193 | 621 ft | 22 kts | 180° |
| 2026-05-01 11:55 | 32.88031 | -97.03193 | 621 ft | 14 kts | 179° |
| 2026-05-01 11:55 | 32.87935 | -97.03190 | 621 ft | 14 kts | 166° |
| 2026-05-01 11:55 | 32.87904 | -97.03096 | 621 ft | 13 kts | 90° |
| 2026-05-01 11:56 | 32.87921 | -97.03004 | 621 ft | 4 kts | 15° |
| 2026-05-01 11:56 | 32.87946 | -97.03002 | 621 ft | 6 kts | 0° |
| 2026-05-01 11:56 | 32.88175 | -97.02999 | 621 ft | 67 kts | 360° |
| 2026-05-01 11:56 | 32.88891 | -97.02999 | 621 ft | 137 kts | 2° |
| 2026-05-01 11:57 | 32.90063 | -97.02999 | 654 ft | 193 kts | 360° |
| 2026-05-01 11:57 | 32.91428 | -97.03010 | 1372 ft | 195 kts | 1° |
| 2026-05-01 11:57 | 32.92786 | -97.02848 | 2263 ft | 198 kts | 10° |
| 2026-05-01 11:57 | 32.94107 | -97.02497 | 3010 ft | 189 kts | 15° |
| 2026-05-01 11:58 | 32.95369 | -97.02065 | 3500 ft | 191 kts | 19° |
| 2026-05-01 11:58 | 32.96652 | -97.01597 | 3851 ft | 201 kts | 19° |
| 2026-05-01 11:58 | 32.99551 | -97.00590 | 4427 ft | 225 kts | 19° |
| 2026-05-01 11:59 | 33.00946 | -96.99760 | 4813 ft | 227 kts | 44° |
| 2026-05-01 11:59 | 33.01747 | -96.98187 | 5292 ft | 226 kts | 73° |
| 2026-05-01 11:59 | 33.01947 | -96.96316 | 5744 ft | 229 kts | 86° |
| 2026-05-01 12:00 | 33.01606 | -96.92696 | 7039 ft | 215 kts | 102° |
| 2026-05-01 12:00 | 33.01066 | -96.90998 | 7352 ft | 222 kts | 106° |
| 2026-05-01 12:00 | 33.00254 | -96.87305 | 7999 ft | 238 kts | 105° |
| 2026-05-01 12:01 | 32.99710 | -96.85416 | 8342 ft | 246 kts | 108° |
| 2026-05-01 12:01 | 32.99518 | -96.84785 | 8401 ft | 252 kts | 108° |
| 2026-05-01 12:02 | 32.99071 | -96.83325 | 8500 ft | 264 kts | 108° |
| 2026-05-01 12:02 | 32.98420 | -96.81222 | 8801 ft | 275 kts | 110° |
| 2026-05-01 12:02 | 32.97680 | -96.79107 | 9393 ft | 275 kts | 112° |
| 2026-05-01 12:02 | 32.96907 | -96.77027 | 10025 ft | 274 kts | 113° |
| 2026-05-01 12:03 | 32.96092 | -96.74945 | 10481 ft | 284 kts | 114° |
| 2026-05-01 12:03 | 32.95230 | -96.72749 | 10754 ft | 302 kts | 114° |
| 2026-05-01 12:03 | 32.94316 | -96.70425 | 11044 ft | 321 kts | 114° |
| 2026-05-01 12:03 | 32.93340 | -96.67932 | 11334 ft | 341 kts | 115° |
| 2026-05-01 12:04 | 32.92320 | -96.65292 | 11638 ft | 361 kts | 115° |
| 2026-05-01 12:04 | 32.91239 | -96.62526 | 11884 ft | 382 kts | 115° |
| 2026-05-01 12:04 | 32.90069 | -96.59540 | 12136 ft | 403 kts | 116° |
| 2026-05-01 12:04 | 32.88851 | -96.56449 | 12448 ft | 421 kts | 116° |
| 2026-05-01 12:05 | 32.87594 | -96.53271 | 13012 ft | 431 kts | 116° |
| 2026-05-01 12:05 | 32.85003 | -96.46726 | 14185 ft | 447 kts | 117° |
| 2026-05-01 12:05 | 32.83673 | -96.43363 | 14866 ft | 452 kts | 117° |
| 2026-05-01 12:06 | 32.82322 | -96.39953 | 15436 ft | 460 kts | 117° |
| 2026-05-01 12:06 | 32.81860 | -96.38797 | 15690 ft | 460 kts | 118° |
| 2026-05-01 12:07 | 32.81083 | -96.36651 | 16190 ft | 462 kts | 111° |
| 2026-05-01 12:07 | 32.80451 | -96.32897 | 16987 ft | 466 kts | 95° |
| 2026-05-01 12:07 | 32.80402 | -96.29027 | 17582 ft | 474 kts | 90° |
| 2026-05-01 12:07 | 32.80541 | -96.25053 | 17907 ft | 486 kts | 86° |
| 2026-05-01 12:08 | 32.80887 | -96.21032 | 18420 ft | 493 kts | 83° |
| 2026-05-01 12:08 | 32.81363 | -96.16995 | 19127 ft | 495 kts | 82° |
| 2026-05-01 12:08 | 32.81834 | -96.12908 | 19618 ft | 503 kts | 83° |
| 2026-05-01 12:08 | 32.82277 | -96.08764 | 19970 ft | 513 kts | 83° |
| 2026-05-01 12:09 | 32.82718 | -96.04514 | 20567 ft | 516 kts | 83° |
| 2026-05-01 12:09 | 32.83145 | -96.00275 | 21241 ft | 518 kts | 84° |
| 2026-05-01 12:09 | 32.83578 | -95.95987 | 21696 ft | 525 kts | 83° |
| 2026-05-01 12:09 | 32.84015 | -95.91656 | 22102 ft | 532 kts | 84° |
| 2026-05-01 12:10 | 32.84461 | -95.87243 | 22505 ft | 539 kts | 84° |
| 2026-05-01 12:10 | 32.85358 | -95.78299 | 23367 ft | 551 kts | 84° |
| 2026-05-01 12:10 | 32.85809 | -95.73750 | 23788 ft | 557 kts | 84° |
| 2026-05-01 12:11 | 32.86404 | -95.67708 | 24353 ft | 564 kts | 84° |
| 2026-05-01 12:11 | 32.86465 | -95.67081 | 24404 ft | 565 kts | 84° |
| 2026-05-01 12:12 | 32.86900 | -95.62629 | 24933 ft | 567 kts | 85° |
| 2026-05-01 12:12 | 32.87354 | -95.57935 | 25251 ft | 574 kts | 85° |
| 2026-05-01 12:12 | 32.87812 | -95.53214 | 25799 ft | 576 kts | 85° |
| 2026-05-01 12:12 | 32.88273 | -95.48454 | 26185 ft | 581 kts | 85° |
| 2026-05-01 12:13 | 32.88733 | -95.43663 | 26607 ft | 584 kts | 85° |
| 2026-05-01 12:13 | 32.89225 | -95.38847 | 27011 ft | 588 kts | 85° |
| 2026-05-01 12:13 | 32.89714 | -95.33993 | 27366 ft | 592 kts | 85° |
| 2026-05-01 12:13 | 32.90198 | -95.29131 | 27827 ft | 593 kts | 86° |
| 2026-05-01 12:14 | 32.90673 | -95.24260 | 28276 ft | 593 kts | 86° |
| 2026-05-01 12:14 | 32.91143 | -95.19387 | 28787 ft | 592 kts | 86° |
| 2026-05-01 12:14 | 32.91611 | -95.14500 | 29225 ft | 592 kts | 86° |
| 2026-05-01 12:14 | 32.92075 | -95.09626 | 29584 ft | 594 kts | 86° |
| 2026-05-01 12:15 | 32.92539 | -95.04744 | 29989 ft | 593 kts | 86° |
| 2026-05-01 12:15 | 32.93000 | -94.99857 | 30336 ft | 594 kts | 87° |
| 2026-05-01 12:15 | 32.93453 | -94.95038 | 30718 ft | 593 kts | 87° |
| 2026-05-01 12:15 | 32.93915 | -94.90094 | 31016 ft | 594 kts | 87° |
| 2026-05-01 12:16 | 32.94372 | -94.85193 | 31324 ft | 595 kts | 87° |
| 2026-05-01 12:16 | 32.94519 | -94.83612 | 31431 ft | 595 kts | 87° |
| 2026-05-01 12:16 | 32.94650 | -94.82199 | 31519 ft | 595 kts | 87° |
| 2026-05-01 12:17 | 32.95110 | -94.77229 | 31822 ft | 595 kts | 87° |
| 2026-05-01 12:17 | 32.95556 | -94.72399 | 32114 ft | 595 kts | 87° |
| 2026-05-01 12:17 | 32.96006 | -94.67492 | 32379 ft | 596 kts | 87° |
| 2026-05-01 12:17 | 32.96468 | -94.62587 | 32658 ft | 597 kts | 86° |
| 2026-05-01 12:18 | 32.96937 | -94.57609 | 32930 ft | 597 kts | 87° |
| 2026-05-01 12:18 | 32.97381 | -94.52702 | 33168 ft | 597 kts | 88° |
| 2026-05-01 12:18 | 32.97818 | -94.47784 | 33399 ft | 598 kts | 88° |
| 2026-05-01 12:18 | 32.98253 | -94.42864 | 33626 ft | 598 kts | 88° |
| 2026-05-01 12:19 | 32.98539 | -94.39608 | 33778 ft | 598 kts | 88° |
| 2026-05-01 12:19 | 32.99115 | -94.33067 | 34052 ft | 599 kts | 88° |
| 2026-05-01 12:19 | 32.99561 | -94.28125 | 34242 ft | 601 kts | 86° |
| 2026-05-01 12:19 | 33.00210 | -94.23206 | 34443 ft | 603 kts | 82° |
| 2026-05-01 12:20 | 33.00757 | -94.19894 | 34577 ft | 604 kts | 81° |
| 2026-05-01 12:20 | 33.01648 | -94.15003 | 34829 ft | 603 kts | 80° |
| 2026-05-01 12:20 | 33.02546 | -94.10125 | 35023 ft | 603 kts | 80° |
| 2026-05-01 12:20 | 33.03421 | -94.05236 | 35097 ft | 603 kts | 80° |
| 2026-05-01 12:21 | 33.04833 | -93.97150 | 35088 ft | 604 kts | 81° |
| 2026-05-01 12:22 | 33.06160 | -93.88737 | 35072 ft | 603 kts | 88° |
| 2026-05-01 12:22 | 33.05986 | -93.78737 | 35090 ft | 597 kts | 98° |
| 2026-05-01 12:23 | 33.05368 | -93.68906 | 35078 ft | 594 kts | 100° |
| 2026-05-01 12:23 | 33.04688 | -93.59148 | 35079 ft | 594 kts | 100° |
| 2026-05-01 12:24 | 33.04001 | -93.49293 | 35077 ft | 593 kts | 100° |
| 2026-05-01 12:24 | 33.03317 | -93.39546 | 35076 ft | 594 kts | 100° |
| 2026-05-01 12:25 | 33.02272 | -93.24839 | 35073 ft | 594 kts | 100° |
| 2026-05-01 12:26 | 33.01562 | -93.14969 | 35073 ft | 594 kts | 99° |
| 2026-05-01 12:26 | 33.01358 | -93.11879 | 35074 ft | 594 kts | 99° |
| 2026-05-01 12:27 | 33.00305 | -92.97185 | 35076 ft | 594 kts | 100° |
| 2026-05-01 12:28 | 32.99204 | -92.82470 | 35082 ft | 595 kts | 100° |
| 2026-05-01 12:29 | 32.98107 | -92.67767 | 35079 ft | 595 kts | 100° |
| 2026-05-01 12:29 | 32.96974 | -92.53043 | 35074 ft | 594 kts | 100° |
| 2026-05-01 12:30 | 32.95823 | -92.38351 | 35079 ft | 594 kts | 100° |
| 2026-05-01 12:31 | 32.95096 | -92.28546 | 35078 ft | 595 kts | 99° |
| 2026-05-01 12:31 | 32.94974 | -92.26886 | 35079 ft | 595 kts | 99° |
| 2026-05-01 12:32 | 32.94554 | -92.21296 | 35078 ft | 594 kts | 99° |
| 2026-05-01 12:32 | 32.93409 | -92.06605 | 35078 ft | 594 kts | 99° |
| 2026-05-01 12:33 | 32.92630 | -91.96812 | 35076 ft | 594 kts | 99° |
| 2026-05-01 12:33 | 32.91844 | -91.87046 | 35078 ft | 593 kts | 99° |
| 2026-05-01 12:34 | 32.91050 | -91.77264 | 35080 ft | 593 kts | 99° |
| 2026-05-01 12:34 | 32.90248 | -91.67489 | 35079 ft | 593 kts | 99° |
| 2026-05-01 12:35 | 32.89436 | -91.57712 | 35075 ft | 594 kts | 99° |
| 2026-05-01 12:35 | 32.88619 | -91.47938 | 35075 ft | 594 kts | 99° |
| 2026-05-01 12:36 | 32.87793 | -91.38158 | 35072 ft | 594 kts | 99° |
| 2026-05-01 12:36 | 32.86960 | -91.28382 | 35070 ft | 594 kts | 99° |
| 2026-05-01 12:37 | 32.86118 | -91.18602 | 35070 ft | 594 kts | 99° |
| 2026-05-01 12:37 | 32.85269 | -91.08832 | 35065 ft | 594 kts | 99° |
| 2026-05-01 12:38 | 32.84414 | -90.99069 | 35056 ft | 594 kts | 99° |
| 2026-05-01 12:38 | 32.83550 | -90.89307 | 35065 ft | 594 kts | 99° |
| 2026-05-01 12:39 | 32.82680 | -90.79549 | 35058 ft | 593 kts | 99° |
| 2026-05-01 12:39 | 32.81802 | -90.69799 | 35059 ft | 593 kts | 99° |
| 2026-05-01 12:40 | 32.80922 | -90.60103 | 35058 ft | 593 kts | 99° |
| 2026-05-01 12:40 | 32.80029 | -90.50361 | 35058 ft | 592 kts | 99° |
| 2026-05-01 12:41 | 32.79130 | -90.40633 | 35054 ft | 592 kts | 99° |
| 2026-05-01 12:41 | 32.78225 | -90.30914 | 35053 ft | 591 kts | 99° |
| 2026-05-01 12:42 | 32.77311 | -90.21189 | 35051 ft | 592 kts | 99° |
| 2026-05-01 12:42 | 32.76391 | -90.11480 | 35033 ft | 591 kts | 99° |
| 2026-05-01 12:43 | 32.75969 | -90.01742 | 35025 ft | 593 kts | 90° |
| 2026-05-01 12:43 | 32.76308 | -89.91915 | 35041 ft | 595 kts | 88° |
| 2026-05-01 12:44 | 32.76726 | -89.82105 | 35050 ft | 594 kts | 88° |
| 2026-05-01 12:45 | 32.77530 | -89.62448 | 35049 ft | 596 kts | 88° |
| 2026-05-01 12:45 | 32.77921 | -89.52605 | 35050 ft | 596 kts | 88° |
| 2026-05-01 12:46 | 32.78300 | -89.42833 | 35043 ft | 597 kts | 88° |
| 2026-05-01 12:46 | 32.78676 | -89.32980 | 35049 ft | 597 kts | 88° |
| 2026-05-01 12:47 | 32.79045 | -89.23109 | 35050 ft | 597 kts | 88° |
| 2026-05-01 12:47 | 32.79436 | -89.13258 | 35052 ft | 597 kts | 88° |
| 2026-05-01 12:48 | 32.79806 | -89.03404 | 35050 ft | 597 kts | 88° |
| 2026-05-01 12:48 | 32.80147 | -88.93531 | 35058 ft | 598 kts | 88° |
| 2026-05-01 12:49 | 32.80487 | -88.83661 | 35067 ft | 598 kts | 88° |
| 2026-05-01 12:49 | 32.80819 | -88.73779 | 35060 ft | 598 kts | 88° |
| 2026-05-01 12:50 | 32.81125 | -88.63901 | 35064 ft | 597 kts | 88° |
| 2026-05-01 12:50 | 32.81421 | -88.54035 | 35059 ft | 597 kts | 88° |
| 2026-05-01 12:51 | 32.81712 | -88.44164 | 35047 ft | 597 kts | 88° |
| 2026-05-01 12:52 | 32.82213 | -88.29377 | 35051 ft | 597 kts | 88° |
| 2026-05-01 12:52 | 32.82632 | -88.14577 | 35049 ft | 597 kts | 88° |
| 2026-05-01 12:53 | 32.83022 | -87.99847 | 35049 ft | 596 kts | 88° |
| 2026-05-01 12:54 | 32.83275 | -87.89964 | 35040 ft | 597 kts | 88° |
| 2026-05-01 12:54 | 32.83628 | -87.75169 | 35048 ft | 597 kts | 88° |
| 2026-05-01 12:55 | 32.83963 | -87.60360 | 35041 ft | 597 kts | 88° |
| 2026-05-01 12:56 | 32.84215 | -87.50494 | 35039 ft | 598 kts | 88° |
| 2026-05-01 12:56 | 32.84458 | -87.40607 | 35039 ft | 598 kts | 88° |
| 2026-05-01 12:57 | 32.84677 | -87.30722 | 35038 ft | 597 kts | 88° |
| 2026-05-01 12:57 | 32.84881 | -87.21005 | 34574 ft | 582 kts | 88° |
| 2026-05-01 12:57 | 32.84995 | -87.16203 | 34118 ft | 581 kts | 88° |
| 2026-05-01 12:58 | 32.85106 | -87.11407 | 33658 ft | 578 kts | 88° |
| 2026-05-01 12:58 | 32.85199 | -87.06648 | 33208 ft | 573 kts | 88° |
| 2026-05-01 12:58 | 32.85283 | -87.01927 | 32758 ft | 569 kts | 89° |
| 2026-05-01 12:59 | 32.85444 | -86.92601 | 31871 ft | 560 kts | 89° |
| 2026-05-01 12:59 | 32.85521 | -86.88062 | 31437 ft | 555 kts | 89° |
| 2026-05-01 12:59 | 32.85651 | -86.80406 | 30704 ft | 548 kts | 89° |
| 2026-05-01 13:00 | 32.85830 | -86.71410 | 29829 ft | 539 kts | 90° |
| 2026-05-01 13:00 | 32.85921 | -86.65598 | 29255 ft | 533 kts | 90° |
| 2026-05-01 13:01 | 32.86028 | -86.58225 | 28514 ft | 526 kts | 90° |
| 2026-05-01 13:01 | 32.86089 | -86.53892 | 28071 ft | 522 kts | 90° |
| 2026-05-01 13:01 | 32.86209 | -86.45323 | 27185 ft | 515 kts | 90° |
| 2026-05-01 13:02 | 32.86270 | -86.41074 | 26746 ft | 511 kts | 89° |
| 2026-05-01 13:07 | 32.96092 | -85.59861 | 17561 ft | 439 kts | 77° |
| 2026-05-01 13:07 | 32.96711 | -85.56312 | 17145 ft | 436 kts | 77° |
| 2026-05-01 13:07 | 32.97313 | -85.52783 | 16708 ft | 433 kts | 77° |
| 2026-05-01 13:08 | 32.97901 | -85.49279 | 16284 ft | 430 kts | 78° |
| 2026-05-01 13:08 | 32.98481 | -85.45790 | 15867 ft | 427 kts | 78° |
| 2026-05-01 13:08 | 32.99053 | -85.42340 | 15464 ft | 423 kts | 78° |
| 2026-05-01 13:08 | 32.99619 | -85.38915 | 15063 ft | 420 kts | 78° |
| 2026-05-01 13:09 | 33.00181 | -85.35514 | 14676 ft | 415 kts | 78° |
| 2026-05-01 13:09 | 33.00731 | -85.32163 | 14320 ft | 410 kts | 78° |
| 2026-05-01 13:09 | 33.01280 | -85.28840 | 13917 ft | 406 kts | 78° |
| 2026-05-01 13:09 | 33.01824 | -85.25559 | 13536 ft | 402 kts | 77° |
| 2026-05-01 13:10 | 33.02717 | -85.22451 | 13153 ft | 394 kts | 63° |
| 2026-05-01 13:10 | 33.04029 | -85.19604 | 12775 ft | 389 kts | 56° |
| 2026-05-01 13:10 | 33.05526 | -85.16949 | 12404 ft | 383 kts | 51° |
| 2026-05-01 13:10 | 33.07134 | -85.14442 | 12044 ft | 378 kts | 49° |
| 2026-05-01 13:11 | 33.08723 | -85.11975 | 11701 ft | 374 kts | 50° |
| 2026-05-01 13:11 | 33.10273 | -85.09495 | 11369 ft | 371 kts | 51° |
| 2026-05-01 13:11 | 33.11791 | -85.07039 | 11087 ft | 365 kts | 51° |
| 2026-05-01 13:11 | 33.13269 | -85.04642 | 10979 ft | 354 kts | 51° |
| 2026-05-01 13:12 | 33.14702 | -85.02313 | 10877 ft | 339 kts | 51° |
| 2026-05-01 13:12 | 33.16070 | -85.00077 | 10665 ft | 327 kts | 51° |
| 2026-05-01 13:12 | 33.17402 | -84.97944 | 10446 ft | 315 kts | 50° |
| 2026-05-01 13:12 | 33.18695 | -84.95854 | 10165 ft | 309 kts | 51° |
| 2026-05-01 13:13 | 33.19948 | -84.93822 | 9942 ft | 303 kts | 51° |
| 2026-05-01 13:13 | 33.21092 | -84.91967 | 9318 ft | 311 kts | 51° |
| 2026-05-01 13:13 | 33.22128 | -84.90288 | 8732 ft | 317 kts | 52° |
| 2026-05-01 13:13 | 33.23477 | -84.88226 | 8424 ft | 308 kts | 45° |
| 2026-05-01 13:14 | 33.25041 | -84.86563 | 8286 ft | 296 kts | 37° |
| 2026-05-01 13:14 | 33.26709 | -84.85165 | 8055 ft | 289 kts | 31° |
| 2026-05-01 13:14 | 33.28430 | -84.83921 | 7996 ft | 287 kts | 27° |
| 2026-05-01 13:14 | 33.30263 | -84.83151 | 7626 ft | 282 kts | 10° |
| 2026-05-01 13:15 | 33.32214 | -84.82875 | 7249 ft | 282 kts | 2° |
| 2026-05-01 13:15 | 33.34163 | -84.82836 | 7026 ft | 278 kts | 358° |
| 2026-05-01 13:15 | 33.36054 | -84.82909 | 6902 ft | 267 kts | 356° |
| 2026-05-01 13:15 | 33.37911 | -84.82969 | 6525 ft | 265 kts | 358° |
| 2026-05-01 13:16 | 33.39750 | -84.82987 | 6154 ft | 263 kts | 358° |
| 2026-05-01 13:16 | 33.41565 | -84.82990 | 5774 ft | 259 kts | 359° |
| 2026-05-01 13:16 | 33.43355 | -84.82990 | 5407 ft | 254 kts | 359° |
| 2026-05-01 13:17 | 33.47910 | -84.81034 | 4949 ft | 237 kts | 33° |
| 2026-05-01 13:17 | 33.49246 | -84.79899 | 4968 ft | 235 kts | 34° |
| 2026-05-01 13:18 | 33.51922 | -84.77631 | 4977 ft | 236 kts | 34° |
| 2026-05-01 13:18 | 33.53265 | -84.76505 | 4975 ft | 236 kts | 34° |
| 2026-05-01 13:18 | 33.54611 | -84.75386 | 4970 ft | 235 kts | 34° |
| 2026-05-01 13:18 | 33.55939 | -84.74285 | 4915 ft | 228 kts | 34° |
| 2026-05-01 13:19 | 33.57228 | -84.73220 | 4714 ft | 222 kts | 34° |
| 2026-05-01 13:19 | 33.58497 | -84.72178 | 4421 ft | 221 kts | 34° |
| 2026-05-01 13:19 | 33.61019 | -84.70125 | 4028 ft | 216 kts | 36° |
| 2026-05-01 13:20 | 33.62269 | -84.69107 | 3935 ft | 215 kts | 34° |
| 2026-05-01 13:20 | 33.63167 | -84.67741 | 3768 ft | 213 kts | 68° |
| 2026-05-01 13:20 | 33.63407 | -84.66003 | 4007 ft | 213 kts | 85° |
| 2026-05-01 13:21 | 33.63241 | -84.62483 | 3896 ft | 219 kts | 91° |
| 2026-05-01 13:21 | 33.63182 | -84.60781 | 3635 ft | 206 kts | 90° |
| 2026-05-01 13:21 | 33.63174 | -84.59132 | 3342 ft | 188 kts | 88° |
| 2026-05-01 13:21 | 33.63177 | -84.57613 | 3092 ft | 177 kts | 88° |
| 2026-05-01 13:22 | 33.63178 | -84.56143 | 2860 ft | 177 kts | 88° |
| 2026-05-01 13:22 | 33.63178 | -84.55090 | 2691 ft | 177 kts | 88° |
| 2026-05-01 13:22 | 33.63178 | -84.54059 | 2553 ft | 167 kts | 88° |
| 2026-05-01 13:22 | 33.63179 | -84.52738 | 2324 ft | 165 kts | 88° |
| 2026-05-01 13:23 | 33.63179 | -84.51308 | 2110 ft | 171 kts | 89° |
| 2026-05-01 13:23 | 33.63179 | -84.49897 | 1871 ft | 169 kts | 90° |
| 2026-05-01 13:23 | 33.63180 | -84.48486 | 1639 ft | 169 kts | 89° |
| 2026-05-01 13:23 | 33.63180 | -84.47073 | 1420 ft | 168 kts | 90° |
| 2026-05-01 13:24 | 33.63181 | -84.45684 | 1202 ft | 167 kts | 90° |
| 2026-05-01 13:24 | 33.63181 | -84.44283 | 1042 ft | 167 kts | 90° |
| 2026-05-01 13:24 | 33.63181 | -84.43049 | 1040 ft | 116 kts | 89° |
| 2026-05-01 13:25 | 33.63182 | -84.42056 | 1039 ft | 34 kts | 91° |
| 2026-05-01 13:25 | 33.63175 | -84.41886 | 1039 ft | 12 kts | 122° |
| 2026-05-01 13:25 | 33.63108 | -84.41866 | 1039 ft | 7 kts | 210° |
| 2026-05-01 13:25 | 33.63089 | -84.41888 | 1039 ft | 7 kts | 234° |
| 2026-05-01 13:26 | 33.63082 | -84.41902 | 1039 ft | 6 kts | 243° |
| 2026-05-01 13:26 | 33.63073 | -84.41957 | 1039 ft | 7 kts | 271° |
| 2026-05-01 13:26 | 33.63074 | -84.42054 | 1039 ft | 13 kts | 269° |
| 2026-05-01 13:26 | 33.63073 | -84.42159 | 1039 ft | 12 kts | 269° |
| 2026-05-01 13:27 | 33.63072 | -84.42260 | 1039 ft | 12 kts | 269° |
| 2026-05-01 13:27 | 33.63079 | -84.42357 | 1039 ft | 11 kts | 277° |
| 2026-05-01 13:27 | 33.63072 | -84.42531 | 1039 ft | 11 kts | 269° |
| 2026-05-01 13:28 | 33.63076 | -84.42735 | 1039 ft | 13 kts | 271° |
| 2026-05-01 13:28 | 33.63076 | -84.42825 | 1039 ft | 13 kts | 270° |
| 2026-05-01 13:29 | 33.63052 | -84.42911 | 1039 ft | 12 kts | 217° |
| 2026-05-01 13:29 | 33.62938 | -84.42857 | 1039 ft | 6 kts | 156° |
| 2026-05-01 13:30 | 33.62779 | -84.42846 | 1039 ft | 5 kts | 178° |
| 2026-05-01 13:31 | 33.62741 | -84.42865 | 1039 ft | 3 kts | 264° |
| 2026-05-01 13:31 | 33.62742 | -84.42945 | 1039 ft | 3 kts | 270° |
| 2026-05-01 13:32 | 33.62742 | -84.42950 | 1039 ft | 0 kts | 270° |